Norfolk, Connecticut
Current Conditions -  °F | °C
As of 9:51 AM on Friday 28 Nov 2014 (Local Time) from KBDL Reporting Station
Broken Clouds Broken Clouds  
Wind Chill: 23°   Ceiling: 3100
Heat Index: 33°   Visibility: 10mi
Dew Point: 20°   Wind: 15mph
Humidity: 59%   Direction: 310°NW
Pressure: 30.11"   Gusts: NA
Location:  41.99°N, 73.2°W
Report Text: KBDL 281451Z 31013KT 10SM BKN031 BKN048 01/M07 A3011 RMK AO2 SLP199 T00061067 51020
Loading
Personal Weather Stations






























Interactive Weather Map New forecast layout! Learn more

10-Day Weather Forecast

Advertisements
Track Severe Weather on mobile